createdAt,value
2018-04-08T00:00:10.198Z,45.9
2018-04-08T00:01:12.008Z,45.9
2018-04-08T00:02:13.845Z,45.9
2018-04-08T00:03:15.716Z,46.2
2018-04-08T00:04:17.556Z,46.3
2018-04-08T00:05:19.470Z,46.3
2018-04-08T00:06:21.336Z,46.5
2018-04-08T00:07:23.021Z,46.8
2018-04-08T00:08:24.881Z,46.8
2018-04-08T00:09:26.599Z,46.4
2018-04-08T00:10:28.464Z,46.6
2018-04-08T00:11:30.220Z,47.0
2018-04-08T00:12:31.984Z,46.4
2018-04-08T00:13:33.802Z,46.5
2018-04-08T00:14:35.623Z,46.8
2018-04-08T00:15:37.561Z,46.4
2018-04-08T00:16:40.165Z,46.5
2018-04-08T00:17:42.004Z,45.7
2018-04-08T00:18:43.873Z,45.8
2018-04-08T00:19:45.643Z,45.7
2018-04-08T00:20:47.420Z,45.8
2018-04-08T00:21:49.166Z,45.9
2018-04-08T00:22:50.913Z,45.9
2018-04-08T00:23:52.613Z,45.8
2018-04-08T00:24:54.459Z,45.8
2018-04-08T00:25:56.192Z,45.9
2018-04-08T00:26:57.999Z,45.9
2018-04-08T00:27:59.991Z,45.9
2018-04-08T00:29:01.837Z,45.6
2018-04-08T00:30:03.484Z,45.6
2018-04-08T00:31:05.394Z,45.5
2018-04-08T00:32:07.196Z,45.5
2018-04-08T00:33:08.963Z,45.6
2018-04-08T00:34:10.806Z,45.9
2018-04-08T00:35:12.590Z,45.6
2018-04-08T00:36:14.343Z,45.8
2018-04-08T00:37:16.062Z,45.7
2018-04-08T00:38:17.847Z,45.5
2018-04-08T00:39:19.815Z,45.3
2018-04-08T00:40:21.690Z,45.4
2018-04-08T00:41:23.647Z,45.4
2018-04-08T00:42:25.492Z,45.3
2018-04-08T00:43:27.445Z,45.4
2018-04-08T00:44:29.465Z,45.4
2018-04-08T00:45:31.231Z,45.4
2018-04-08T00:46:33.086Z,45.8
2018-04-08T00:47:34.908Z,45.3
2018-04-08T00:48:36.849Z,45.8
2018-04-08T00:49:38.618Z,45.5
2018-04-08T00:50:40.510Z,44.8
2018-04-08T00:51:42.310Z,44.9
2018-04-08T00:52:44.248Z,44.5
2018-04-08T00:53:46.049Z,44.9
2018-04-08T00:54:47.826Z,44.6
2018-04-08T00:55:49.660Z,44.7
2018-04-08T00:56:51.409Z,44.6
2018-04-08T00:57:53.294Z,44.3
2018-04-08T00:58:55.041Z,44.3
2018-04-08T00:59:56.843Z,44.2
2018-04-08T01:00:58.605Z,44.0
2018-04-08T01:02:00.526Z,44.1
2018-04-08T01:03:02.297Z,43.9
2018-04-08T01:04:04.108Z,43.7
2018-04-08T01:05:05.893Z,43.8
2018-04-08T01:06:07.703Z,44.0
2018-04-08T01:07:09.582Z,44.0
2018-04-08T01:08:11.469Z,44.1
2018-04-08T01:09:13.284Z,43.8
2018-04-08T01:10:15.070Z,44.1
2018-04-08T01:11:16.871Z,44.4
2018-04-08T01:12:18.792Z,44.3
2018-04-08T01:13:20.597Z,44.1
2018-04-08T01:14:22.529Z,44.9
2018-04-08T01:15:24.467Z,44.3
2018-04-08T01:16:26.248Z,44.1
2018-04-08T01:17:28.052Z,44.2
2018-04-08T01:18:30.082Z,44.2
2018-04-08T01:19:31.888Z,44.2
2018-04-08T01:20:33.729Z,44.2
2018-04-08T01:21:35.729Z,44.2
2018-04-08T01:22:37.522Z,44.2
2018-04-08T01:23:40.001Z,44.2
2018-04-08T01:24:41.822Z,43.8
2018-04-08T01:25:43.571Z,43.8
2018-04-08T01:26:45.344Z,44.1
2018-04-08T01:27:47.138Z,43.7
2018-04-08T01:28:48.895Z,43.8
2018-04-08T01:29:50.740Z,43.6
2018-04-08T01:30:52.550Z,43.6
2018-04-08T01:31:54.326Z,43.5
2018-04-08T01:32:56.138Z,43.8
2018-04-08T01:33:57.835Z,43.7
2018-04-08T01:34:59.698Z,43.8
2018-04-08T01:36:01.551Z,43.7
2018-04-08T01:37:03.284Z,44.2
2018-04-08T01:38:05.143Z,44.0
2018-04-08T01:39:06.938Z,44.2
2018-04-08T01:40:08.688Z,44.2
2018-04-08T01:41:10.488Z,43.6
2018-04-08T01:42:12.363Z,43.7
2018-04-08T01:43:14.046Z,43.8
2018-04-08T01:44:15.854Z,43.6
2018-04-08T01:45:17.649Z,43.6
2018-04-08T01:46:19.520Z,43.9
2018-04-08T01:47:21.314Z,43.7
2018-04-08T01:48:23.088Z,43.8
2018-04-08T01:49:24.939Z,43.5
2018-04-08T01:50:26.754Z,43.9
2018-04-08T01:51:28.523Z,44.1
2018-04-08T01:52:30.399Z,43.7
2018-04-08T01:53:32.166Z,44.5
2018-04-08T01:54:33.945Z,44.3
2018-04-08T01:55:35.709Z,45.1
2018-04-08T01:56:37.463Z,45.0
2018-04-08T01:57:39.304Z,45.3
2018-04-08T01:58:41.069Z,44.3
2018-04-08T01:59:42.805Z,44.5
2018-04-08T02:00:44.547Z,43.9
2018-04-08T02:01:46.413Z,44.9
2018-04-08T02:02:48.202Z,44.6
2018-04-08T02:03:50.074Z,44.5
2018-04-08T02:04:51.830Z,45.3
2018-04-08T02:05:53.589Z,44.8
2018-04-08T02:06:55.392Z,45.4
2018-04-08T02:07:57.145Z,45.5
2018-04-08T02:08:59.066Z,45.3
2018-04-08T02:10:00.938Z,45.4
2018-04-08T02:11:02.686Z,45.4
2018-04-08T02:12:04.477Z,45.5
2018-04-08T02:13:06.376Z,45.6
2018-04-08T02:14:08.246Z,45.4
2018-04-08T02:15:10.048Z,45.8
2018-04-08T02:16:11.876Z,45.5
2018-04-08T02:17:13.782Z,45.7
2018-04-08T02:18:15.514Z,45.5
2018-04-08T02:19:17.229Z,45.3
2018-04-08T02:20:18.980Z,45.8
2018-04-08T02:21:20.833Z,45.8
2018-04-08T02:22:22.574Z,45.8
2018-04-08T02:23:24.428Z,45.9
2018-04-08T02:24:26.251Z,45.9
2018-04-08T02:25:28.198Z,46.6
2018-04-08T02:26:29.991Z,46.4
2018-04-08T02:27:31.827Z,46.7
2018-04-08T02:28:33.695Z,46.7
2018-04-08T02:29:35.328Z,45.9
2018-04-08T02:30:37.001Z,46.1
2018-04-08T02:31:38.821Z,45.6
2018-04-08T02:32:40.613Z,45.9
2018-04-08T02:33:42.460Z,46.4
2018-04-08T02:34:44.150Z,47.1
2018-04-08T02:35:46.104Z,47.1
2018-04-08T02:36:47.989Z,48.2
2018-04-08T02:37:49.935Z,48.1
2018-04-08T02:38:51.704Z,48.0
2018-04-08T02:39:53.642Z,48.9
2018-04-08T02:40:55.481Z,48.7
2018-04-08T02:41:57.281Z,48.9
2018-04-08T02:42:59.066Z,48.9
2018-04-08T02:44:01.094Z,49.1
2018-04-08T02:45:02.945Z,49.0
2018-04-08T02:46:04.741Z,48.8
2018-04-08T02:47:06.549Z,48.9
2018-04-08T02:48:08.434Z,48.9
2018-04-08T02:49:10.252Z,49.2
2018-04-08T02:50:12.056Z,48.7
2018-04-08T02:51:13.910Z,49.0
2018-04-08T02:52:15.636Z,48.8
2018-04-08T02:53:17.393Z,48.6
2018-04-08T02:54:19.175Z,48.5
2018-04-08T02:55:20.944Z,48.5
2018-04-08T02:56:22.846Z,48.9
2018-04-08T02:57:24.581Z,49.1
2018-04-08T02:58:26.325Z,49.0
2018-04-08T02:59:28.203Z,48.8
2018-04-08T03:00:29.943Z,49.2
2018-04-08T03:01:31.652Z,49.2
2018-04-08T03:02:33.445Z,49.4
2018-04-08T03:03:35.196Z,49.6
2018-04-08T03:04:36.962Z,48.8
2018-04-08T03:05:38.707Z,49.2
2018-04-08T03:06:40.571Z,48.9
2018-04-08T03:07:42.344Z,48.9
2018-04-08T03:08:44.077Z,49.0
2018-04-08T03:09:45.891Z,48.4
2018-04-08T03:10:47.679Z,48.4
2018-04-08T03:11:49.443Z,48.3
2018-04-08T03:12:51.249Z,47.9
2018-04-08T03:13:52.960Z,47.8
2018-04-08T03:14:54.850Z,48.3
2018-04-08T03:15:56.614Z,47.6
2018-04-08T03:16:58.447Z,48.0
2018-04-08T03:18:00.292Z,47.7
2018-04-08T03:19:02.030Z,47.3
2018-04-08T03:20:03.893Z,47.6
2018-04-08T03:21:05.575Z,47.6
2018-04-08T03:22:07.317Z,47.9
2018-04-08T03:23:09.187Z,47.7
2018-04-08T03:24:10.992Z,47.3
2018-04-08T03:25:12.931Z,48.1
2018-04-08T03:26:14.745Z,48.0
2018-04-08T03:27:16.565Z,48.1
2018-04-08T03:28:18.441Z,48.0
2018-04-08T03:29:20.295Z,47.7
2018-04-08T03:30:22.097Z,47.1
2018-04-08T03:31:24.113Z,47.6
2018-04-08T03:32:26.002Z,46.6
2018-04-08T03:33:27.794Z,46.7
2018-04-08T03:34:29.541Z,46.7
2018-04-08T03:35:31.460Z,46.7
2018-04-08T03:36:33.523Z,46.8
2018-04-08T03:37:35.336Z,46.7
2018-04-08T03:38:37.138Z,46.6
2018-04-08T03:39:38.902Z,46.6
2018-04-08T03:40:40.684Z,46.7
2018-04-08T03:41:42.412Z,46.5
2018-04-08T03:42:44.208Z,46.4
2018-04-08T03:43:46.073Z,46.5
2018-04-08T03:44:47.863Z,46.6
2018-04-08T03:45:49.645Z,46.7
2018-04-08T03:46:51.432Z,46.6
2018-04-08T03:47:53.327Z,46.8
2018-04-08T03:48:55.194Z,46.3
2018-04-08T03:49:56.970Z,46.3
2018-04-08T03:50:58.897Z,46.4
2018-04-08T03:52:00.763Z,46.6
2018-04-08T03:53:02.639Z,46.7
2018-04-08T03:54:04.427Z,46.5
2018-04-08T03:55:06.198Z,46.7
2018-04-08T03:56:08.023Z,46.9
2018-04-08T03:57:09.781Z,46.3
2018-04-08T03:58:11.447Z,46.4
2018-04-08T03:59:13.266Z,46.5
2018-04-08T04:00:15.087Z,46.7
2018-04-08T04:01:16.787Z,46.9
2018-04-08T04:02:18.560Z,46.8
2018-04-08T04:03:20.282Z,46.7
2018-04-08T04:04:22.035Z,46.9
2018-04-08T04:05:23.884Z,46.9
2018-04-08T04:06:25.705Z,47.0
2018-04-08T04:07:27.458Z,47.0
2018-04-08T04:08:29.251Z,47.4
2018-04-08T04:09:31.057Z,47.4
2018-04-08T04:10:32.937Z,48.0
2018-04-08T04:11:34.669Z,48.0
2018-04-08T04:12:36.378Z,48.4
2018-04-08T04:13:38.272Z,48.4
2018-04-08T04:14:40.147Z,48.9
2018-04-08T04:15:41.998Z,48.7
2018-04-08T04:16:43.761Z,48.8
2018-04-08T04:17:45.483Z,49.1
2018-04-08T04:18:47.243Z,49.0
2018-04-08T04:19:49.085Z,48.8
2018-04-08T04:20:50.906Z,48.6
2018-04-08T04:21:52.715Z,47.9
2018-04-08T04:22:54.470Z,48.2
2018-04-08T04:23:56.327Z,47.6
2018-04-08T04:24:58.220Z,47.9
2018-04-08T04:25:59.983Z,47.6
2018-04-08T04:27:01.643Z,47.2
2018-04-08T04:28:03.497Z,46.8
2018-04-08T04:29:05.236Z,46.9
2018-04-08T04:30:06.974Z,46.4
2018-04-08T04:31:08.778Z,46.5
2018-04-08T04:32:10.493Z,46.6
2018-04-08T04:33:12.270Z,46.8
2018-04-08T04:34:14.160Z,46.8
2018-04-08T04:35:15.958Z,46.9
2018-04-08T04:36:17.772Z,46.6
2018-04-08T04:37:19.432Z,46.9
2018-04-08T04:38:21.331Z,47.0
2018-04-08T04:39:23.166Z,47.6
2018-04-08T04:40:25.066Z,46.8
2018-04-08T04:41:26.847Z,46.9
2018-04-08T04:42:28.703Z,46.9
2018-04-08T04:43:30.505Z,47.3
2018-04-08T04:44:32.313Z,46.8
2018-04-08T04:45:34.043Z,46.8
2018-04-08T04:46:35.697Z,46.8
2018-04-08T04:47:37.585Z,47.0
2018-04-08T04:48:39.362Z,45.9
2018-04-08T04:49:41.175Z,46.4
2018-04-08T04:50:42.942Z,45.8
2018-04-08T04:51:44.651Z,45.9
2018-04-08T04:52:46.356Z,46.1
2018-04-08T04:53:48.194Z,45.8
2018-04-08T04:54:49.992Z,46.2
2018-04-08T04:55:51.821Z,46.7
2018-04-08T04:56:53.600Z,47.0
2018-04-08T04:57:55.509Z,46.9
2018-04-08T04:58:57.180Z,47.0
2018-04-08T04:59:58.989Z,47.0
2018-04-08T05:01:00.795Z,46.7
2018-04-08T05:02:02.695Z,46.5
2018-04-08T05:03:04.481Z,46.8
2018-04-08T05:04:06.390Z,47.0
2018-04-08T05:05:08.214Z,47.1
2018-04-08T05:06:10.042Z,47.1
2018-04-08T05:07:11.790Z,47.4
2018-04-08T05:08:13.558Z,47.5
2018-04-08T05:09:15.385Z,48.3
2018-04-08T05:10:17.197Z,47.5
2018-04-08T05:11:18.983Z,47.4
2018-04-08T05:12:20.868Z,47.7
2018-04-08T05:13:22.625Z,47.5
2018-04-08T05:14:24.339Z,47.4
2018-04-08T05:15:26.216Z,47.4
2018-04-08T05:16:27.973Z,47.9
2018-04-08T05:17:29.831Z,47.9
2018-04-08T05:18:31.625Z,48.6
2018-04-08T05:19:33.388Z,48.6
2018-04-08T05:20:35.115Z,49.0
2018-04-08T05:21:36.942Z,48.9
2018-04-08T05:22:38.918Z,48.9
2018-04-08T05:23:40.660Z,48.7
2018-04-08T05:24:42.496Z,48.6
2018-04-08T05:25:44.324Z,48.8
2018-04-08T05:26:46.034Z,48.5
2018-04-08T05:27:47.966Z,48.7
2018-04-08T05:28:49.704Z,48.9
2018-04-08T05:29:51.467Z,48.7
2018-04-08T05:30:53.410Z,49.2
2018-04-08T05:31:55.133Z,48.9
2018-04-08T05:32:56.873Z,48.9
2018-04-08T05:33:58.744Z,49.1
2018-04-08T05:35:00.509Z,48.8
2018-04-08T05:36:02.191Z,48.6
2018-04-08T05:37:03.995Z,48.4
2018-04-08T05:38:05.630Z,48.3
2018-04-08T05:39:07.374Z,48.1
2018-04-08T05:40:09.097Z,48.0
2018-04-08T05:41:10.893Z,49.0
2018-04-08T05:42:12.612Z,47.8
2018-04-08T05:43:14.272Z,48.2
2018-04-08T05:44:16.111Z,47.9
2018-04-08T05:45:17.861Z,48.4
2018-04-08T05:46:19.618Z,48.0
2018-04-08T05:47:21.364Z,48.1
2018-04-08T05:48:23.136Z,47.6
2018-04-08T05:49:24.796Z,47.8
2018-04-08T05:50:26.568Z,47.1
2018-04-08T05:51:28.409Z,46.9
2018-04-08T05:52:30.101Z,45.9
2018-04-08T05:53:31.863Z,45.9
2018-04-08T05:54:33.678Z,45.8
2018-04-08T05:55:35.336Z,45.6
2018-04-08T05:56:37.102Z,44.9
2018-04-08T05:57:38.838Z,44.5
2018-04-08T05:58:40.671Z,44.2
2018-04-08T05:59:42.397Z,44.9
2018-04-08T06:00:44.262Z,44.3
2018-04-08T06:01:46.038Z,43.6
2018-04-08T06:02:47.809Z,42.4
2018-04-08T06:03:49.499Z,42.6
2018-04-08T06:04:51.263Z,42.7
2018-04-08T06:05:53.069Z,42.5
2018-04-08T06:06:54.883Z,42.6
2018-04-08T06:07:56.627Z,42.2
2018-04-08T06:08:58.384Z,42.8
2018-04-08T06:10:00.142Z,42.5
2018-04-08T06:11:01.789Z,42.8
2018-04-08T06:12:03.547Z,42.9
2018-04-08T06:13:05.385Z,42.8
2018-04-08T06:14:07.130Z,42.4
2018-04-08T06:15:08.944Z,42.4
2018-04-08T06:16:10.774Z,41.9
2018-04-08T06:17:12.666Z,41.4
2018-04-08T06:18:14.497Z,41.4
2018-04-08T06:19:16.266Z,41.3
2018-04-08T06:20:18.133Z,42.3
2018-04-08T06:21:19.883Z,42.5
2018-04-08T06:22:21.730Z,42.5
2018-04-08T06:23:23.537Z,42.7
2018-04-08T06:24:25.218Z,44.0
2018-04-08T06:25:27.039Z,43.5
2018-04-08T06:26:28.819Z,43.7
2018-04-08T06:27:30.569Z,43.8
2018-04-08T06:28:32.302Z,43.6
2018-04-08T06:29:34.119Z,44.0
2018-04-08T06:30:35.941Z,43.5
2018-04-08T06:31:37.696Z,44.0
2018-04-08T06:32:39.414Z,44.0
2018-04-08T06:33:41.189Z,44.0
2018-04-08T06:34:43.007Z,43.9
2018-04-08T06:35:44.866Z,43.7
2018-04-08T06:36:46.602Z,43.7
2018-04-08T06:37:48.417Z,43.2
2018-04-08T06:38:50.220Z,41.9
2018-04-08T06:39:52.006Z,42.0
2018-04-08T06:40:53.784Z,42.1
2018-04-08T06:41:55.606Z,41.3
2018-04-08T06:42:57.385Z,41.8
2018-04-08T06:43:59.128Z,40.4
2018-04-08T06:45:00.857Z,39.7
2018-04-08T06:46:02.618Z,39.8
2018-04-08T06:47:04.411Z,39.9
2018-04-08T06:48:06.222Z,40.2
2018-04-08T06:49:08.022Z,40.3
2018-04-08T06:50:09.827Z,40.6
2018-04-08T06:51:11.620Z,39.8
2018-04-08T06:52:13.482Z,40.2
2018-04-08T06:53:15.253Z,40.2
2018-04-08T06:54:17.100Z,40.1
2018-04-08T06:55:18.797Z,40.9
2018-04-08T06:56:20.510Z,40.9
2018-04-08T06:57:22.296Z,41.3
2018-04-08T06:58:24.032Z,41.3
2018-04-08T06:59:25.762Z,41.0
2018-04-08T07:00:27.504Z,41.0
2018-04-08T07:01:29.265Z,42.0
2018-04-08T07:02:30.973Z,42.0
2018-04-08T07:03:32.774Z,42.2
2018-04-08T07:04:34.451Z,41.4
2018-04-08T07:05:36.234Z,41.2
2018-04-08T07:06:38.004Z,41.5
2018-04-08T07:07:39.860Z,42.4
2018-04-08T07:08:41.713Z,43.3
2018-04-08T07:09:43.594Z,44.0
2018-04-08T07:10:45.400Z,43.6
2018-04-08T07:11:47.145Z,43.2
2018-04-08T07:12:48.939Z,44.0
2018-04-08T07:13:50.727Z,42.5
2018-04-08T07:14:52.408Z,42.4
2018-04-08T07:15:54.188Z,43.0
2018-04-08T07:16:55.922Z,42.9
2018-04-08T07:17:57.547Z,42.5
2018-04-08T07:18:59.395Z,41.7
2018-04-08T07:20:01.124Z,40.8
2018-04-08T07:21:02.831Z,40.8
2018-04-08T07:22:04.556Z,40.5
2018-04-08T07:23:06.285Z,39.5
2018-04-08T07:24:08.009Z,38.9
2018-04-08T07:25:09.794Z,39.3
2018-04-08T07:26:11.569Z,38.7
2018-04-08T07:27:13.372Z,37.7
2018-04-08T07:28:15.075Z,38.2
2018-04-08T07:29:16.788Z,38.4
2018-04-08T07:30:18.537Z,37.8
2018-04-08T07:31:20.291Z,37.6
2018-04-08T07:32:22.046Z,36.3
2018-04-08T07:33:23.871Z,36.7
2018-04-08T07:34:25.602Z,36.2
2018-04-08T07:35:27.487Z,37.7
2018-04-08T07:36:29.206Z,36.1
2018-04-08T07:37:30.897Z,36.8
2018-04-08T07:38:32.627Z,37.6
2018-04-08T07:39:34.338Z,36.1
2018-04-08T07:40:36.078Z,37.7
2018-04-08T07:41:37.851Z,36.5
2018-04-08T07:42:40.245Z,36.2
2018-04-08T07:43:42.021Z,36.5
2018-04-08T07:44:43.823Z,37.6
2018-04-08T07:45:45.588Z,36.7
2018-04-08T07:46:47.348Z,36.9
2018-04-08T07:47:49.137Z,36.6
2018-04-08T07:48:50.857Z,36.6
2018-04-08T07:49:52.577Z,36.5
2018-04-08T07:50:54.360Z,36.5
2018-04-08T07:51:56.127Z,36.2
2018-04-08T07:52:57.972Z,36.2
2018-04-08T07:53:59.754Z,35.2
2018-04-08T07:55:01.513Z,36.2
2018-04-08T07:56:03.239Z,36.0
2018-04-08T07:57:04.930Z,36.6
2018-04-08T07:58:06.650Z,36.4
2018-04-08T07:59:08.373Z,35.1
2018-04-08T08:00:10.151Z,35.5
2018-04-08T08:01:11.941Z,35.4
2018-04-08T08:02:13.682Z,35.2
2018-04-08T08:03:15.286Z,35.3
2018-04-08T08:04:16.993Z,35.2
2018-04-08T08:05:18.813Z,34.5
2018-04-08T08:06:20.593Z,34.1
2018-04-08T08:07:22.308Z,33.6
2018-04-08T08:08:24.090Z,33.0
2018-04-08T08:09:25.838Z,33.1
2018-04-08T08:10:27.569Z,33.9
2018-04-08T08:11:29.341Z,33.6
2018-04-08T08:12:31.115Z,33.7
2018-04-08T08:13:32.882Z,32.9
2018-04-08T08:14:34.605Z,32.8
2018-04-08T08:15:36.394Z,32.9
2018-04-08T08:16:38.157Z,33.1
2018-04-08T08:17:39.835Z,34.0
2018-04-08T08:18:41.582Z,33.6
2018-04-08T08:19:43.361Z,33.8
2018-04-08T08:20:45.094Z,35.0
2018-04-08T08:21:46.816Z,35.2
2018-04-08T08:22:48.627Z,33.8
2018-04-08T08:23:50.326Z,34.1
2018-04-08T08:24:52.123Z,33.8
2018-04-08T08:25:53.904Z,33.9
2018-04-08T08:26:55.690Z,33.0
2018-04-08T08:27:57.399Z,31.9
2018-04-08T08:28:59.146Z,32.6
2018-04-08T08:30:00.938Z,34.1
2018-04-08T08:31:02.745Z,34.4
2018-04-08T08:32:04.570Z,33.2
2018-04-08T08:33:06.255Z,33.0
2018-04-08T08:34:07.999Z,32.5
2018-04-08T08:35:09.790Z,32.0
2018-04-08T08:36:11.558Z,32.4
2018-04-08T08:37:13.404Z,32.3
2018-04-08T08:38:15.177Z,31.6
2018-04-08T08:39:16.853Z,31.5
2018-04-08T08:40:18.673Z,32.6
2018-04-08T08:41:20.462Z,31.4
2018-04-08T08:42:22.224Z,31.6
2018-04-08T08:43:24.048Z,30.0
2018-04-08T08:44:25.753Z,29.9
2018-04-08T08:45:27.489Z,29.0
2018-04-08T08:46:29.207Z,28.8
2018-04-08T08:47:30.977Z,30.0
2018-04-08T08:48:32.708Z,29.9
2018-04-08T08:49:34.430Z,30.0
2018-04-08T08:50:36.210Z,30.0
2018-04-08T08:51:37.963Z,30.2
2018-04-08T08:52:39.730Z,29.5
2018-04-08T08:53:41.673Z,29.5
2018-04-08T08:54:43.455Z,29.6
2018-04-08T08:55:45.226Z,29.9
2018-04-08T08:56:46.971Z,28.9
2018-04-08T08:57:48.773Z,29.5
2018-04-08T08:58:50.501Z,29.1
2018-04-08T08:59:52.320Z,30.4
2018-04-08T09:00:54.160Z,29.9
2018-04-08T09:01:56.013Z,30.0
2018-04-08T09:02:57.764Z,28.9
2018-04-08T09:04:00.631Z,29.8
2018-04-08T09:05:02.390Z,28.8
2018-04-08T09:06:04.244Z,29.9
2018-04-08T09:07:06.039Z,31.0
2018-04-08T09:08:07.872Z,28.8
2018-04-08T09:09:09.625Z,29.0
2018-04-08T09:10:11.378Z,29.4
2018-04-08T09:11:13.128Z,30.4
2018-04-08T09:12:14.961Z,30.1
2018-04-08T09:13:16.669Z,29.9
2018-04-08T09:14:18.545Z,28.7
2018-04-08T09:15:20.267Z,30.5
2018-04-08T09:16:22.081Z,31.3
2018-04-08T09:17:23.936Z,29.8
2018-04-08T09:18:25.623Z,29.9
2018-04-08T09:19:27.277Z,29.8
2018-04-08T09:20:29.118Z,29.0
2018-04-08T09:21:30.901Z,28.7
2018-04-08T09:22:32.646Z,29.8
2018-04-08T09:23:34.444Z,31.4
2018-04-08T09:24:36.207Z,30.7
2018-04-08T09:25:37.877Z,30.2
2018-04-08T09:26:39.670Z,30.0
2018-04-08T09:27:41.417Z,30.2
2018-04-08T09:28:43.136Z,28.8
2018-04-08T09:29:44.876Z,28.6
2018-04-08T09:30:46.586Z,28.3
2018-04-08T09:31:48.278Z,28.1
2018-04-08T09:32:50.039Z,28.4
2018-04-08T09:33:51.832Z,27.9
2018-04-08T09:34:53.565Z,27.2
2018-04-08T09:35:55.309Z,27.8
2018-04-08T09:36:57.121Z,28.5
2018-04-08T09:37:58.923Z,28.4
2018-04-08T09:39:00.659Z,27.7
2018-04-08T09:40:02.428Z,28.1
2018-04-08T09:41:04.156Z,26.5
2018-04-08T09:42:05.846Z,27.7
2018-04-08T09:43:07.636Z,27.2
2018-04-08T09:44:09.422Z,27.7
2018-04-08T09:45:11.179Z,25.9
2018-04-08T09:46:12.956Z,23.3
2018-04-08T09:47:14.669Z,24.1
2018-04-08T09:48:16.381Z,26.1
2018-04-08T09:49:18.164Z,24.3
2018-04-08T09:50:19.953Z,22.7
2018-04-08T09:51:21.752Z,22.8
2018-04-08T09:52:23.389Z,22.4
2018-04-08T09:53:25.117Z,22.6
2018-04-08T09:54:26.923Z,22.7
2018-04-08T09:55:28.672Z,21.7
2018-04-08T09:56:30.397Z,22.2
2018-04-08T09:57:32.074Z,20.4
2018-04-08T09:58:33.843Z,20.9
2018-04-08T09:59:35.551Z,21.1
2018-04-08T10:00:37.310Z,19.0
2018-04-08T10:01:39.164Z,18.1
2018-04-08T10:02:40.980Z,18.3
2018-04-08T10:03:42.750Z,18.6
2018-04-08T10:04:44.497Z,18.4
2018-04-08T10:05:46.313Z,17.6
2018-04-08T10:06:48.081Z,17.5
2018-04-08T10:07:49.867Z,16.9
2018-04-08T10:08:51.591Z,18.1
2018-04-08T10:09:53.352Z,17.3
2018-04-08T10:10:55.372Z,17.5
2018-04-08T10:11:57.094Z,18.3
2018-04-08T10:12:59.000Z,19.4
2018-04-08T10:14:00.877Z,19.7
2018-04-08T10:15:02.710Z,18.3
2018-04-08T10:16:04.564Z,17.5
2018-04-08T10:17:06.339Z,17.6
2018-04-08T10:18:08.173Z,18.2
2018-04-08T10:19:10.072Z,17.8
2018-04-08T10:20:11.845Z,18.1
2018-04-08T10:21:13.728Z,18.5
2018-04-08T10:22:15.482Z,17.0
2018-04-08T10:23:17.298Z,16.2
2018-04-08T10:24:19.109Z,16.7
2018-04-08T10:25:21.097Z,18.7
2018-04-08T10:26:23.163Z,17.1
2018-04-08T10:27:25.116Z,18.4
2018-04-08T10:28:26.980Z,17.5
2018-04-08T10:29:29.056Z,16.7
2018-04-08T10:30:30.953Z,15.8
2018-04-08T10:31:33.009Z,14.7
2018-04-08T10:32:34.825Z,14.8
2018-04-08T10:33:36.850Z,15.9
2018-04-08T10:34:38.895Z,16.7
2018-04-08T10:35:41.034Z,15.9
2018-04-08T10:36:43.128Z,15.4
2018-04-08T10:37:45.131Z,15.0
2018-04-08T10:38:47.115Z,14.7
2018-04-08T10:39:49.093Z,14.8
2018-04-08T10:40:51.128Z,14.3
2018-04-08T10:41:53.089Z,15.7
2018-04-08T10:42:54.843Z,15.9
2018-04-08T10:43:56.945Z,14.2
2018-04-08T10:44:58.832Z,14.4
2018-04-08T10:46:00.724Z,14.6
2018-04-08T10:47:02.800Z,16.4
2018-04-08T10:48:04.844Z,15.7
2018-04-08T10:49:06.829Z,14.9
2018-04-08T10:50:08.841Z,14.8
2018-04-08T10:51:11.431Z,15.8
2018-04-08T10:52:13.324Z,15.0
2018-04-08T10:53:15.160Z,15.4
2018-04-08T10:54:17.038Z,14.9
2018-04-08T10:55:18.988Z,15.4
2018-04-08T10:56:21.188Z,14.6
2018-04-08T10:57:23.116Z,14.9
2018-04-08T10:58:24.936Z,14.0
2018-04-08T10:59:27.015Z,14.6
2018-04-08T11:00:29.133Z,13.9
2018-04-08T11:01:30.897Z,14.5
2018-04-08T11:02:33.546Z,14.6
2018-04-08T11:03:35.757Z,13.8
2018-04-08T11:04:37.761Z,13.6
2018-04-08T11:05:39.804Z,13.5
2018-04-08T11:06:41.683Z,12.8
2018-04-08T11:07:43.723Z,13.0
2018-04-08T11:08:45.592Z,14.5
2018-04-08T11:09:47.498Z,14.2
2018-04-08T11:10:49.837Z,14.8
2018-04-08T11:11:51.723Z,13.2
2018-04-08T11:12:53.696Z,12.6
2018-04-08T11:13:55.742Z,12.9
2018-04-08T11:14:57.624Z,13.4
2018-04-08T11:15:59.503Z,14.1
2018-04-08T11:17:01.610Z,13.9
2018-04-08T11:18:03.610Z,13.6
2018-04-08T11:19:05.512Z,13.7
2018-04-08T11:20:07.408Z,15.4
2018-04-08T11:21:09.364Z,14.5
2018-04-08T11:22:11.407Z,14.8
2018-04-08T11:23:13.268Z,15.6
2018-04-08T11:24:15.117Z,17.3
2018-04-08T11:25:16.949Z,18.2
2018-04-08T11:26:18.772Z,17.6
2018-04-08T11:27:20.677Z,18.7
2018-04-08T11:28:22.407Z,16.9
2018-04-08T11:29:24.284Z,16.8
2018-04-08T11:30:26.046Z,17.3
2018-04-08T11:31:27.932Z,17.5
2018-04-08T11:32:30.106Z,16.7
2018-04-08T11:33:31.963Z,17.3
2018-04-08T11:34:33.696Z,17.1
2018-04-08T11:35:35.499Z,16.9
2018-04-08T11:36:37.246Z,17.7
2018-04-08T11:37:39.228Z,17.0
2018-04-08T11:38:40.922Z,17.3
2018-04-08T11:39:42.711Z,17.0
2018-04-08T11:40:44.608Z,17.9
2018-04-08T11:41:46.425Z,17.0
2018-04-08T11:42:48.222Z,17.1
2018-04-08T11:43:50.237Z,17.7
2018-04-08T11:44:52.118Z,17.1
2018-04-08T11:45:53.818Z,17.2
2018-04-08T11:46:55.632Z,16.9
2018-04-08T11:47:57.420Z,17.6
2018-04-08T11:48:59.366Z,16.8
2018-04-08T11:50:01.663Z,15.8
2018-04-08T11:51:03.295Z,16.1
2018-04-08T11:52:05.175Z,15.3
2018-04-08T11:53:07.146Z,14.8
2018-04-08T11:54:08.958Z,14.0
2018-04-08T11:55:10.817Z,15.9
2018-04-08T11:56:12.665Z,16.0
2018-04-08T11:57:14.476Z,14.7
2018-04-08T11:58:16.239Z,16.1
2018-04-08T11:59:18.080Z,16.7
2018-04-08T12:00:19.982Z,16.6
2018-04-08T12:01:21.677Z,16.8
2018-04-08T12:02:23.567Z,15.8
2018-04-08T12:03:25.587Z,15.7
2018-04-08T12:04:27.611Z,16.4
2018-04-08T12:05:29.709Z,15.9
2018-04-08T12:06:32.143Z,14.7
2018-04-08T12:07:34.019Z,16.0
2018-04-08T12:08:35.857Z,15.5
2018-04-08T12:09:37.831Z,15.8
2018-04-08T12:10:39.720Z,17.0
2018-04-08T12:11:41.719Z,16.2
2018-04-08T12:12:43.615Z,14.8
2018-04-08T12:13:45.704Z,14.7
2018-04-08T12:14:47.567Z,15.2
2018-04-08T12:15:49.616Z,15.9
2018-04-08T12:16:51.576Z,14.7
2018-04-08T12:17:53.654Z,14.8
2018-04-08T12:18:55.985Z,14.2
2018-04-08T12:19:57.839Z,14.4
2018-04-08T12:20:59.883Z,14.3
2018-04-08T12:22:01.746Z,13.5
2018-04-08T12:23:03.608Z,13.6
2018-04-08T12:24:05.607Z,13.7
2018-04-08T12:25:07.451Z,12.9
2018-04-08T12:26:09.546Z,13.9
2018-04-08T12:27:11.581Z,15.0
2018-04-08T12:28:13.486Z,13.8
2018-04-08T12:29:15.408Z,13.2
2018-04-08T12:30:17.396Z,14.2
2018-04-08T12:31:19.410Z,15.4
2018-04-08T12:32:21.327Z,15.6
2018-04-08T12:33:24.697Z,16.1
2018-04-08T12:34:27.426Z,15.8
2018-04-08T12:35:38.002Z,15.0
2018-04-08T12:36:40.501Z,14.9
2018-04-08T12:37:42.410Z,14.7
2018-04-08T12:38:44.290Z,15.9
2018-04-08T12:39:46.190Z,14.6
2018-04-08T12:40:48.290Z,15.1
2018-04-08T12:41:50.145Z,14.8
2018-04-08T12:42:52.245Z,13.9
2018-04-08T12:43:54.085Z,13.8
2018-04-08T12:44:56.007Z,13.9
2018-04-08T12:45:57.920Z,13.6
2018-04-08T12:46:59.931Z,13.2
2018-04-08T12:48:01.808Z,13.0
2018-04-08T12:49:03.854Z,13.8
2018-04-08T12:50:05.732Z,13.7
2018-04-08T12:51:07.717Z,13.6
2018-04-08T12:52:10.435Z,12.8
2018-04-08T12:53:12.272Z,13.4
2018-04-08T12:54:14.234Z,13.8
2018-04-08T12:55:16.122Z,13.5
2018-04-08T12:56:18.091Z,13.6
2018-04-08T12:57:20.111Z,13.9
2018-04-08T12:58:21.899Z,13.5
2018-04-08T12:59:23.723Z,13.9
2018-04-08T13:00:25.581Z,13.0
2018-04-08T13:01:27.316Z,11.5
2018-04-08T13:02:29.101Z,12.3
2018-04-08T13:03:30.964Z,12.3
2018-04-08T13:04:32.793Z,11.9
2018-04-08T13:05:34.663Z,12.1
2018-04-08T13:06:36.542Z,12.2
2018-04-08T13:07:38.351Z,12.9
2018-04-08T13:08:40.291Z,13.6
2018-04-08T13:09:42.056Z,12.9
2018-04-08T13:10:43.907Z,14.3
2018-04-08T13:11:45.737Z,13.4
2018-04-08T13:12:47.557Z,12.6
2018-04-08T13:13:49.392Z,12.4
2018-04-08T13:14:51.273Z,11.2
2018-04-08T13:15:53.103Z,12.2
2018-04-08T13:16:54.917Z,11.6
2018-04-08T13:17:56.754Z,11.6
2018-04-08T13:18:58.579Z,11.9
2018-04-08T13:20:00.525Z,12.0
2018-04-08T13:21:02.616Z,11.9
2018-04-08T13:22:04.359Z,12.4
2018-04-08T13:23:06.124Z,12.1
2018-04-08T13:24:08.087Z,12.7
2018-04-08T13:25:09.937Z,12.7
2018-04-08T13:26:11.851Z,12.2
2018-04-08T13:27:13.773Z,11.9
2018-04-08T13:28:15.595Z,12.4
2018-04-08T13:29:17.353Z,11.6
2018-04-08T13:30:19.301Z,12.1
2018-04-08T13:31:21.185Z,13.0
2018-04-08T13:32:23.058Z,13.8
2018-04-08T13:33:24.929Z,13.7
2018-04-08T13:34:26.798Z,12.5
2018-04-08T13:35:28.847Z,13.6
2018-04-08T13:36:30.850Z,12.6
2018-04-08T13:37:32.747Z,13.1
2018-04-08T13:38:34.822Z,12.8
2018-04-08T13:39:36.771Z,13.4
2018-04-08T13:40:38.651Z,14.1
2018-04-08T13:41:40.607Z,14.0
2018-04-08T13:42:42.445Z,13.7